sensor_id;sensor_type;location;lat;lon;timestamp;temperature;humidity
22716;DHT22;11525;51.152;4.456;2024-02-26T00:01:54;7.00;99.90
22716;DHT22;11525;51.152;4.456;2024-02-26T00:04:19;7.00;99.90
22716;DHT22;11525;51.152;4.456;2024-02-26T00:06:47;6.90;99.90
22716;DHT22;11525;51.152;4.456;2024-02-26T00:09:13;6.90;99.90
22716;DHT22;11525;51.152;4.456;2024-02-26T00:11:39;6.90;99.90
22716;DHT22;11525;51.152;4.456;2024-02-26T00:14:04;6.90;99.90
22716;DHT22;11525;51.152;4.456;2024-02-26T00:16:30;6.90;99.90
22716;DHT22;11525;51.152;4.456;2024-02-26T00:18:56;7.00;99.90
22716;DHT22;11525;51.152;4.456;2024-02-26T00:21:22;7.00;99.90
22716;DHT22;11525;51.152;4.456;2024-02-26T00:23:49;7.00;99.90
22716;DHT22;11525;51.152;4.456;2024-02-26T00:26:18;7.00;99.90
22716;DHT22;11525;51.152;4.456;2024-02-26T00:28:43;7.00;99.90
22716;DHT22;11525;51.152;4.456;2024-02-26T00:31:09;6.90;99.90
22716;DHT22;11525;51.152;4.456;2024-02-26T00:33:35;6.90;99.90
22716;DHT22;11525;51.152;4.456;2024-02-26T00:36:00;6.90;99.90
22716;DHT22;11525;51.152;4.456;2024-02-26T00:38:26;6.90;99.90
22716;DHT22;11525;51.152;4.456;2024-02-26T00:40:52;6.90;99.90
22716;DHT22;11525;51.152;4.456;2024-02-26T00:43:18;6.90;99.90
22716;DHT22;11525;51.152;4.456;2024-02-26T00:45:43;6.80;99.90
22716;DHT22;11525;51.152;4.456;2024-02-26T00:48:09;6.80;99.90
22716;DHT22;11525;51.152;4.456;2024-02-26T00:50:35;6.70;99.90
22716;DHT22;11525;51.152;4.456;2024-02-26T00:53:01;6.80;99.90
22716;DHT22;11525;51.152;4.456;2024-02-26T00:55:27;6.70;99.90
22716;DHT22;11525;51.152;4.456;2024-02-26T00:57:52;6.60;99.90
22716;DHT22;11525;51.152;4.456;2024-02-26T01:00:18;6.60;99.90
22716;DHT22;11525;51.152;4.456;2024-02-26T01:02:44;6.70;99.90
22716;DHT22;11525;51.152;4.456;2024-02-26T01:05:13;6.80;99.90
22716;DHT22;11525;51.152;4.456;2024-02-26T01:07:39;6.70;99.90
22716;DHT22;11525;51.152;4.456;2024-02-26T01:10:05;6.60;99.90
22716;DHT22;11525;51.152;4.456;2024-02-26T01:12:35;6.80;99.90
22716;DHT22;11525;51.152;4.456;2024-02-26T01:15:04;6.80;99.90
22716;DHT22;11525;51.152;4.456;2024-02-26T01:17:30;6.80;99.90
22716;DHT22;11525;51.152;4.456;2024-02-26T01:19:55;6.80;99.90
22716;DHT22;11525;51.152;4.456;2024-02-26T01:22:21;6.70;99.90
22716;DHT22;11525;51.152;4.456;2024-02-26T01:24:47;6.60;99.90
22716;DHT22;11525;51.152;4.456;2024-02-26T01:27:13;6.70;99.90
22716;DHT22;11525;51.152;4.456;2024-02-26T01:29:41;6.60;99.90
22716;DHT22;11525;51.152;4.456;2024-02-26T01:32:06;6.50;99.90
22716;DHT22;11525;51.152;4.456;2024-02-26T01:34:32;6.50;99.90
22716;DHT22;11525;51.152;4.456;2024-02-26T01:36:58;6.60;99.90
22716;DHT22;11525;51.152;4.456;2024-02-26T01:39:24;6.60;99.90
22716;DHT22;11525;51.152;4.456;2024-02-26T01:41:50;6.50;99.90
22716;DHT22;11525;51.152;4.456;2024-02-26T01:44:15;6.30;99.90
22716;DHT22;11525;51.152;4.456;2024-02-26T01:46:41;6.40;99.90
22716;DHT22;11525;51.152;4.456;2024-02-26T01:49:08;6.40;99.90
22716;DHT22;11525;51.152;4.456;2024-02-26T01:51:38;6.40;99.90
22716;DHT22;11525;51.152;4.456;2024-02-26T01:54:05;6.40;99.90
22716;DHT22;11525;51.152;4.456;2024-02-26T01:56:34;6.30;99.90
22716;DHT22;11525;51.152;4.456;2024-02-26T01:59:01;6.30;99.90
22716;DHT22;11525;51.152;4.456;2024-02-26T02:01:28;6.30;99.90
22716;DHT22;11525;51.152;4.456;2024-02-26T02:03:56;6.30;99.90
22716;DHT22;11525;51.152;4.456;2024-02-26T02:06:23;6.20;99.90
22716;DHT22;11525;51.152;4.456;2024-02-26T02:08:49;6.20;99.90
22716;DHT22;11525;51.152;4.456;2024-02-26T02:11:15;6.20;99.90
22716;DHT22;11525;51.152;4.456;2024-02-26T02:13:41;6.20;99.90
22716;DHT22;11525;51.152;4.456;2024-02-26T02:16:07;6.20;99.90
22716;DHT22;11525;51.152;4.456;2024-02-26T02:18:33;6.20;99.90
22716;DHT22;11525;51.152;4.456;2024-02-26T02:21:02;6.10;99.90
22716;DHT22;11525;51.152;4.456;2024-02-26T02:23:28;6.10;99.90
22716;DHT22;11525;51.152;4.456;2024-02-26T02:25:54;6.10;99.90
22716;DHT22;11525;51.152;4.456;2024-02-26T02:28:22;6.10;99.90
22716;DHT22;11525;51.152;4.456;2024-02-26T02:30:48;6.20;99.90
22716;DHT22;11525;51.152;4.456;2024-02-26T02:33:15;6.10;99.90
22716;DHT22;11525;51.152;4.456;2024-02-26T02:35:41;6.10;99.90
22716;DHT22;11525;51.152;4.456;2024-02-26T02:38:06;6.10;99.90
22716;DHT22;11525;51.152;4.456;2024-02-26T02:40:32;6.20;99.90
22716;DHT22;11525;51.152;4.456;2024-02-26T02:42:58;6.20;99.90
22716;DHT22;11525;51.152;4.456;2024-02-26T02:45:25;6.20;99.90
22716;DHT22;11525;51.152;4.456;2024-02-26T02:47:51;6.20;99.90
22716;DHT22;11525;51.152;4.456;2024-02-26T02:50:16;6.10;99.90
22716;DHT22;11525;51.152;4.456;2024-02-26T02:52:42;6.10;99.90
22716;DHT22;11525;51.152;4.456;2024-02-26T02:55:08;6.00;99.90
22716;DHT22;11525;51.152;4.456;2024-02-26T02:57:34;6.00;99.90
22716;DHT22;11525;51.152;4.456;2024-02-26T02:59:59;6.00;99.90
22716;DHT22;11525;51.152;4.456;2024-02-26T03:02:25;6.10;99.90
22716;DHT22;11525;51.152;4.456;2024-02-26T03:04:51;6.10;99.90
22716;DHT22;11525;51.152;4.456;2024-02-26T03:07:16;6.10;99.90
22716;DHT22;11525;51.152;4.456;2024-02-26T03:09:42;6.00;99.90
22716;DHT22;11525;51.152;4.456;2024-02-26T03:12:08;6.10;99.90
22716;DHT22;11525;51.152;4.456;2024-02-26T03:14:34;6.10;99.90
22716;DHT22;11525;51.152;4.456;2024-02-26T03:17:00;6.00;99.90
22716;DHT22;11525;51.152;4.456;2024-02-26T03:19:26;6.00;99.90
22716;DHT22;11525;51.152;4.456;2024-02-26T03:21:51;5.90;99.90
22716;DHT22;11525;51.152;4.456;2024-02-26T03:24:17;5.90;99.90
22716;DHT22;11525;51.152;4.456;2024-02-26T03:26:42;6.00;99.90
22716;DHT22;11525;51.152;4.456;2024-02-26T03:29:08;6.00;99.90
22716;DHT22;11525;51.152;4.456;2024-02-26T03:31:34;5.90;99.90
22716;DHT22;11525;51.152;4.456;2024-02-26T03:34:00;5.90;99.90
22716;DHT22;11525;51.152;4.456;2024-02-26T03:36:25;6.00;99.90
22716;DHT22;11525;51.152;4.456;2024-02-26T03:38:52;6.00;99.90
22716;DHT22;11525;51.152;4.456;2024-02-26T03:41:17;5.90;99.90
22716;DHT22;11525;51.152;4.456;2024-02-26T03:43:43;5.90;99.90
22716;DHT22;11525;51.152;4.456;2024-02-26T03:46:10;5.90;99.90
22716;DHT22;11525;51.152;4.456;2024-02-26T03:48:37;6.00;99.90
22716;DHT22;11525;51.152;4.456;2024-02-26T03:51:03;5.90;99.90
22716;DHT22;11525;51.152;4.456;2024-02-26T03:53:29;5.90;99.90
22716;DHT22;11525;51.152;4.456;2024-02-26T03:55:55;5.80;99.90
22716;DHT22;11525;51.152;4.456;2024-02-26T03:58:21;5.80;99.90
22716;DHT22;11525;51.152;4.456;2024-02-26T04:00:46;5.90;99.90
22716;DHT22;11525;51.152;4.456;2024-02-26T04:03:15;5.90;99.90
22716;DHT22;11525;51.152;4.456;2024-02-26T04:05:41;5.90;99.90
22716;DHT22;11525;51.152;4.456;2024-02-26T04:08:07;5.80;99.90
22716;DHT22;11525;51.152;4.456;2024-02-26T04:10:33;5.80;99.90
22716;DHT22;11525;51.152;4.456;2024-02-26T04:13:07;6.00;99.90
22716;DHT22;11525;51.152;4.456;2024-02-26T04:15:33;5.90;99.90
22716;DHT22;11525;51.152;4.456;2024-02-26T04:17:59;5.90;99.90
22716;DHT22;11525;51.152;4.456;2024-02-26T04:20:25;5.90;99.90
22716;DHT22;11525;51.152;4.456;2024-02-26T04:22:51;5.90;99.90
22716;DHT22;11525;51.152;4.456;2024-02-26T04:25:16;5.90;99.90
22716;DHT22;11525;51.152;4.456;2024-02-26T04:27:42;5.90;99.90
22716;DHT22;11525;51.152;4.456;2024-02-26T04:30:08;5.90;99.90
22716;DHT22;11525;51.152;4.456;2024-02-26T04:32:34;5.90;99.90
22716;DHT22;11525;51.152;4.456;2024-02-26T04:35:03;5.90;99.90
22716;DHT22;11525;51.152;4.456;2024-02-26T04:37:28;5.90;99.90
22716;DHT22;11525;51.152;4.456;2024-02-26T04:40:00;5.90;99.90
22716;DHT22;11525;51.152;4.456;2024-02-26T04:42:27;5.90;99.90
22716;DHT22;11525;51.152;4.456;2024-02-26T04:44:53;5.90;99.90
22716;DHT22;11525;51.152;4.456;2024-02-26T04:47:19;5.80;99.90
22716;DHT22;11525;51.152;4.456;2024-02-26T04:49:45;5.90;99.90
22716;DHT22;11525;51.152;4.456;2024-02-26T04:52:11;5.90;99.90
22716;DHT22;11525;51.152;4.456;2024-02-26T04:54:37;5.80;99.90
22716;DHT22;11525;51.152;4.456;2024-02-26T04:57:02;5.80;99.90
22716;DHT22;11525;51.152;4.456;2024-02-26T04:59:28;5.90;99.90
22716;DHT22;11525;51.152;4.456;2024-02-26T05:01:54;5.90;99.90
22716;DHT22;11525;51.152;4.456;2024-02-26T05:04:19;5.80;99.90
22716;DHT22;11525;51.152;4.456;2024-02-26T05:06:45;5.80;99.90
22716;DHT22;11525;51.152;4.456;2024-02-26T05:09:11;5.80;99.90
22716;DHT22;11525;51.152;4.456;2024-02-26T05:11:37;5.80;99.90
22716;DHT22;11525;51.152;4.456;2024-02-26T05:14:03;5.80;99.90
22716;DHT22;11525;51.152;4.456;2024-02-26T05:16:28;5.80;99.90
22716;DHT22;11525;51.152;4.456;2024-02-26T05:18:56;5.80;99.90
22716;DHT22;11525;51.152;4.456;2024-02-26T05:21:22;5.80;99.90
22716;DHT22;11525;51.152;4.456;2024-02-26T05:23:47;5.80;99.90
22716;DHT22;11525;51.152;4.456;2024-02-26T05:26:20;5.80;99.90
22716;DHT22;11525;51.152;4.456;2024-02-26T05:28:45;5.80;99.90
22716;DHT22;11525;51.152;4.456;2024-02-26T05:31:13;5.90;99.90
22716;DHT22;11525;51.152;4.456;2024-02-26T05:33:39;5.90;99.90
22716;DHT22;11525;51.152;4.456;2024-02-26T05:36:05;5.80;99.90
22716;DHT22;11525;51.152;4.456;2024-02-26T05:38:31;5.80;99.90
22716;DHT22;11525;51.152;4.456;2024-02-26T05:41:00;5.80;99.90
22716;DHT22;11525;51.152;4.456;2024-02-26T05:43:28;5.80;99.90
22716;DHT22;11525;51.152;4.456;2024-02-26T05:45:54;5.90;99.90
22716;DHT22;11525;51.152;4.456;2024-02-26T05:48:21;5.90;99.90
22716;DHT22;11525;51.152;4.456;2024-02-26T05:50:47;5.80;99.90
22716;DHT22;11525;51.152;4.456;2024-02-26T05:53:12;5.70;99.90
22716;DHT22;11525;51.152;4.456;2024-02-26T05:55:38;5.80;99.90
22716;DHT22;11525;51.152;4.456;2024-02-26T05:58:04;5.80;99.90
22716;DHT22;11525;51.152;4.456;2024-02-26T06:00:30;5.70;99.90
22716;DHT22;11525;51.152;4.456;2024-02-26T06:02:56;5.80;99.90
22716;DHT22;11525;51.152;4.456;2024-02-26T06:05:22;5.70;99.90
22716;DHT22;11525;51.152;4.456;2024-02-26T06:07:47;5.80;99.90
22716;DHT22;11525;51.152;4.456;2024-02-26T06:10:13;5.90;99.90
22716;DHT22;11525;51.152;4.456;2024-02-26T06:12:39;5.90;99.90
22716;DHT22;11525;51.152;4.456;2024-02-26T06:15:06;5.90;99.90
22716;DHT22;11525;51.152;4.456;2024-02-26T06:17:31;5.80;99.90
22716;DHT22;11525;51.152;4.456;2024-02-26T06:19:57;5.80;99.90
22716;DHT22;11525;51.152;4.456;2024-02-26T06:22:24;5.70;99.90
22716;DHT22;11525;51.152;4.456;2024-02-26T06:24:50;5.70;99.90
22716;DHT22;11525;51.152;4.456;2024-02-26T06:27:16;5.60;99.90
22716;DHT22;11525;51.152;4.456;2024-02-26T06:29:42;5.50;99.90
22716;DHT22;11525;51.152;4.456;2024-02-26T06:32:07;5.60;99.90
22716;DHT22;11525;51.152;4.456;2024-02-26T06:34:33;5.80;99.90
22716;DHT22;11525;51.152;4.456;2024-02-26T06:36:58;5.70;99.90
22716;DHT22;11525;51.152;4.456;2024-02-26T06:39:24;5.70;99.90
22716;DHT22;11525;51.152;4.456;2024-02-26T06:41:50;5.70;99.90
22716;DHT22;11525;51.152;4.456;2024-02-26T06:44:15;5.60;99.90
22716;DHT22;11525;51.152;4.456;2024-02-26T06:46:41;5.60;99.90
22716;DHT22;11525;51.152;4.456;2024-02-26T06:49:07;5.60;99.90
22716;DHT22;11525;51.152;4.456;2024-02-26T06:51:32;5.60;99.90
22716;DHT22;11525;51.152;4.456;2024-02-26T06:53:58;5.60;99.90
22716;DHT22;11525;51.152;4.456;2024-02-26T06:56:24;5.60;99.90
22716;DHT22;11525;51.152;4.456;2024-02-26T06:58:49;5.60;99.90
22716;DHT22;11525;51.152;4.456;2024-02-26T07:01:15;5.60;99.90
22716;DHT22;11525;51.152;4.456;2024-02-26T07:03:41;5.50;99.90
22716;DHT22;11525;51.152;4.456;2024-02-26T07:06:06;5.50;99.90
22716;DHT22;11525;51.152;4.456;2024-02-26T07:08:32;5.60;99.90
22716;DHT22;11525;51.152;4.456;2024-02-26T07:10:58;5.70;99.90
22716;DHT22;11525;51.152;4.456;2024-02-26T07:13:23;5.60;99.90
22716;DHT22;11525;51.152;4.456;2024-02-26T07:15:49;5.50;99.90
22716;DHT22;11525;51.152;4.456;2024-02-26T07:18:15;5.50;99.90
22716;DHT22;11525;51.152;4.456;2024-02-26T07:20:40;5.50;99.90
22716;DHT22;11525;51.152;4.456;2024-02-26T07:23:06;5.50;99.90
22716;DHT22;11525;51.152;4.456;2024-02-26T07:25:32;5.50;99.90
22716;DHT22;11525;51.152;4.456;2024-02-26T07:27:58;5.60;99.90
22716;DHT22;11525;51.152;4.456;2024-02-26T07:30:23;5.70;99.90
22716;DHT22;11525;51.152;4.456;2024-02-26T07:32:50;5.60;99.90
22716;DHT22;11525;51.152;4.456;2024-02-26T07:35:16;5.60;99.90
22716;DHT22;11525;51.152;4.456;2024-02-26T07:37:43;5.60;99.90
22716;DHT22;11525;51.152;4.456;2024-02-26T07:40:09;5.50;99.90
22716;DHT22;11525;51.152;4.456;2024-02-26T07:42:34;5.50;99.90
22716;DHT22;11525;51.152;4.456;2024-02-26T07:45:00;5.50;99.90
22716;DHT22;11525;51.152;4.456;2024-02-26T07:47:26;5.50;99.90
22716;DHT22;11525;51.152;4.456;2024-02-26T07:49:51;5.50;99.90
22716;DHT22;11525;51.152;4.456;2024-02-26T07:52:17;5.50;99.90
22716;DHT22;11525;51.152;4.456;2024-02-26T07:54:43;5.50;99.90
22716;DHT22;11525;51.152;4.456;2024-02-26T07:57:08;5.50;99.90
22716;DHT22;11525;51.152;4.456;2024-02-26T07:59:34;5.60;99.90
22716;DHT22;11525;51.152;4.456;2024-02-26T08:02:00;5.60;99.90
22716;DHT22;11525;51.152;4.456;2024-02-26T08:04:28;5.50;99.90
22716;DHT22;11525;51.152;4.456;2024-02-26T08:06:54;5.60;99.90
22716;DHT22;11525;51.152;4.456;2024-02-26T08:09:20;5.60;99.90
22716;DHT22;11525;51.152;4.456;2024-02-26T08:11:45;5.60;99.90
22716;DHT22;11525;51.152;4.456;2024-02-26T08:14:11;5.60;99.90
22716;DHT22;11525;51.152;4.456;2024-02-26T08:16:37;5.70;99.90
22716;DHT22;11525;51.152;4.456;2024-02-26T08:19:02;5.70;99.90
22716;DHT22;11525;51.152;4.456;2024-02-26T08:21:28;5.60;99.90
22716;DHT22;11525;51.152;4.456;2024-02-26T08:23:54;5.60;99.90
22716;DHT22;11525;51.152;4.456;2024-02-26T08:26:20;5.60;99.90
22716;DHT22;11525;51.152;4.456;2024-02-26T08:28:47;5.60;99.90
22716;DHT22;11525;51.152;4.456;2024-02-26T08:31:14;5.80;99.90
22716;DHT22;11525;51.152;4.456;2024-02-26T08:33:40;5.80;99.90
22716;DHT22;11525;51.152;4.456;2024-02-26T08:36:06;5.80;99.90
22716;DHT22;11525;51.152;4.456;2024-02-26T08:38:32;5.70;99.90
22716;DHT22;11525;51.152;4.456;2024-02-26T08:41:01;5.60;99.90
22716;DHT22;11525;51.152;4.456;2024-02-26T08:43:27;5.70;99.90
22716;DHT22;11525;51.152;4.456;2024-02-26T08:45:52;5.60;99.90
22716;DHT22;11525;51.152;4.456;2024-02-26T08:48:18;5.70;99.90
22716;DHT22;11525;51.152;4.456;2024-02-26T08:50:44;5.60;99.90
22716;DHT22;11525;51.152;4.456;2024-02-26T08:53:09;5.60;99.90
22716;DHT22;11525;51.152;4.456;2024-02-26T08:55:35;5.70;99.90
22716;DHT22;11525;51.152;4.456;2024-02-26T08:58:00;5.80;99.90
22716;DHT22;11525;51.152;4.456;2024-02-26T09:00:26;5.70;99.90
22716;DHT22;11525;51.152;4.456;2024-02-26T09:02:52;5.70;99.90
22716;DHT22;11525;51.152;4.456;2024-02-26T09:05:17;5.70;99.90
22716;DHT22;11525;51.152;4.456;2024-02-26T09:07:43;5.70;99.90
22716;DHT22;11525;51.152;4.456;2024-02-26T09:10:09;5.70;99.90
22716;DHT22;11525;51.152;4.456;2024-02-26T09:12:36;5.70;99.90
22716;DHT22;11525;51.152;4.456;2024-02-26T09:15:02;5.60;99.90
22716;DHT22;11525;51.152;4.456;2024-02-26T09:17:28;5.60;99.90
22716;DHT22;11525;51.152;4.456;2024-02-26T09:19:54;5.60;99.90
22716;DHT22;11525;51.152;4.456;2024-02-26T09:22:20;5.60;99.90
22716;DHT22;11525;51.152;4.456;2024-02-26T09:24:45;5.60;99.90
22716;DHT22;11525;51.152;4.456;2024-02-26T09:27:11;5.70;99.90
22716;DHT22;11525;51.152;4.456;2024-02-26T09:29:37;5.70;99.90
22716;DHT22;11525;51.152;4.456;2024-02-26T09:32:03;5.60;99.90
22716;DHT22;11525;51.152;4.456;2024-02-26T09:34:28;5.60;99.90
22716;DHT22;11525;51.152;4.456;2024-02-26T09:36:54;5.60;99.90
22716;DHT22;11525;51.152;4.456;2024-02-26T09:39:20;5.60;99.90
22716;DHT22;11525;51.152;4.456;2024-02-26T09:41:47;5.60;99.90
22716;DHT22;11525;51.152;4.456;2024-02-26T09:44:18;5.60;99.90
22716;DHT22;11525;51.152;4.456;2024-02-26T09:46:45;5.60;99.90
22716;DHT22;11525;51.152;4.456;2024-02-26T09:49:11;5.60;99.90
22716;DHT22;11525;51.152;4.456;2024-02-26T09:51:38;5.60;99.90
22716;DHT22;11525;51.152;4.456;2024-02-26T09:54:04;5.50;99.90
22716;DHT22;11525;51.152;4.456;2024-02-26T09:56:32;5.50;99.90
22716;DHT22;11525;51.152;4.456;2024-02-26T09:58:59;5.60;99.90
22716;DHT22;11525;51.152;4.456;2024-02-26T10:01:25;5.60;99.90
22716;DHT22;11525;51.152;4.456;2024-02-26T10:03:55;5.50;99.90
22716;DHT22;11525;51.152;4.456;2024-02-26T10:06:22;5.50;99.90
22716;DHT22;11525;51.152;4.456;2024-02-26T10:08:48;5.50;99.90
22716;DHT22;11525;51.152;4.456;2024-02-26T10:11:15;5.50;99.90
22716;DHT22;11525;51.152;4.456;2024-02-26T10:13:41;5.50;99.90
22716;DHT22;11525;51.152;4.456;2024-02-26T10:16:07;5.60;99.90
22716;DHT22;11525;51.152;4.456;2024-02-26T10:18:49;5.60;99.90
22716;DHT22;11525;51.152;4.456;2024-02-26T10:21:22;5.60;99.90
22716;DHT22;11525;51.152;4.456;2024-02-26T10:23:48;5.60;99.90
22716;DHT22;11525;51.152;4.456;2024-02-26T10:26:15;5.50;99.90
22716;DHT22;11525;51.152;4.456;2024-02-26T10:28:44;5.60;99.90
22716;DHT22;11525;51.152;4.456;2024-02-26T10:31:11;5.60;99.90
22716;DHT22;11525;51.152;4.456;2024-02-26T10:33:39;5.60;99.90
22716;DHT22;11525;51.152;4.456;2024-02-26T10:36:07;5.50;99.90
22716;DHT22;11525;51.152;4.456;2024-02-26T10:38:33;5.60;99.90
22716;DHT22;11525;51.152;4.456;2024-02-26T10:40:59;5.50;99.90
22716;DHT22;11525;51.152;4.456;2024-02-26T10:43:26;5.50;99.90
22716;DHT22;11525;51.152;4.456;2024-02-26T10:45:52;5.50;99.90
22716;DHT22;11525;51.152;4.456;2024-02-26T10:48:20;5.50;99.90
22716;DHT22;11525;51.152;4.456;2024-02-26T10:50:46;5.50;99.90
22716;DHT22;11525;51.152;4.456;2024-02-26T10:53:17;5.50;99.90
22716;DHT22;11525;51.152;4.456;2024-02-26T10:55:58;5.50;99.90
22716;DHT22;11525;51.152;4.456;2024-02-26T10:58:24;5.60;99.90
22716;DHT22;11525;51.152;4.456;2024-02-26T11:00:51;5.70;99.90
22716;DHT22;11525;51.152;4.456;2024-02-26T11:03:18;5.60;99.90
22716;DHT22;11525;51.152;4.456;2024-02-26T11:05:48;5.50;99.90
22716;DHT22;11525;51.152;4.456;2024-02-26T11:08:14;5.50;99.90
22716;DHT22;11525;51.152;4.456;2024-02-26T11:10:40;5.60;99.90
22716;DHT22;11525;51.152;4.456;2024-02-26T11:13:09;5.60;99.90
22716;DHT22;11525;51.152;4.456;2024-02-26T11:15:36;5.60;99.90
22716;DHT22;11525;51.152;4.456;2024-02-26T11:18:02;5.60;99.90
22716;DHT22;11525;51.152;4.456;2024-02-26T11:20:28;5.60;99.90
22716;DHT22;11525;51.152;4.456;2024-02-26T11:22:55;5.60;99.90
22716;DHT22;11525;51.152;4.456;2024-02-26T11:25:21;5.60;99.90
22716;DHT22;11525;51.152;4.456;2024-02-26T11:27:53;5.60;99.90
22716;DHT22;11525;51.152;4.456;2024-02-26T11:30:22;5.60;99.90
22716;DHT22;11525;51.152;4.456;2024-02-26T11:32:49;5.50;99.90
22716;DHT22;11525;51.152;4.456;2024-02-26T11:35:16;5.50;99.90
22716;DHT22;11525;51.152;4.456;2024-02-26T11:37:54;5.60;99.90
22716;DHT22;11525;51.152;4.456;2024-02-26T11:40:20;5.60;99.90
22716;DHT22;11525;51.152;4.456;2024-02-26T11:42:47;5.50;99.90
22716;DHT22;11525;51.152;4.456;2024-02-26T11:48:24;5.50;99.90
22716;DHT22;11525;51.152;4.456;2024-02-26T11:50:54;5.40;99.90
22716;DHT22;11525;51.152;4.456;2024-02-26T11:53:30;5.30;99.90
22716;DHT22;11525;51.152;4.456;2024-02-26T11:59:09;5.30;99.90
22716;DHT22;11525;51.152;4.456;2024-02-26T12:01:40;5.30;99.90
22716;DHT22;11525;51.152;4.456;2024-02-26T12:04:26;5.30;99.90
22716;DHT22;11525;51.152;4.456;2024-02-26T12:06:55;5.40;99.90
22716;DHT22;11525;51.152;4.456;2024-02-26T12:09:31;5.30;99.90
22716;DHT22;11525;51.152;4.456;2024-02-26T12:11:57;5.40;99.90
22716;DHT22;11525;51.152;4.456;2024-02-26T12:14:26;5.40;99.90
22716;DHT22;11525;51.152;4.456;2024-02-26T12:16:53;5.60;99.90
22716;DHT22;11525;51.152;4.456;2024-02-26T12:19:21;5.50;99.90
22716;DHT22;11525;51.152;4.456;2024-02-26T12:21:51;5.50;99.90
22716;DHT22;11525;51.152;4.456;2024-02-26T12:24:18;5.50;99.90
22716;DHT22;11525;51.152;4.456;2024-02-26T12:26:45;5.60;99.90
22716;DHT22;11525;51.152;4.456;2024-02-26T12:29:11;5.60;99.90
22716;DHT22;11525;51.152;4.456;2024-02-26T12:31:37;5.60;99.90
22716;DHT22;11525;51.152;4.456;2024-02-26T12:34:05;5.60;99.90
22716;DHT22;11525;51.152;4.456;2024-02-26T12:36:32;5.60;99.90
22716;DHT22;11525;51.152;4.456;2024-02-26T12:39:00;5.50;99.90
22716;DHT22;11525;51.152;4.456;2024-02-26T12:41:26;5.50;99.90
22716;DHT22;11525;51.152;4.456;2024-02-26T12:43:53;5.50;99.90
22716;DHT22;11525;51.152;4.456;2024-02-26T12:46:19;5.50;99.90
22716;DHT22;11525;51.152;4.456;2024-02-26T12:48:46;5.40;99.90
22716;DHT22;11525;51.152;4.456;2024-02-26T12:51:12;5.50;99.90
22716;DHT22;11525;51.152;4.456;2024-02-26T12:53:39;5.50;99.90
22716;DHT22;11525;51.152;4.456;2024-02-26T12:56:07;5.50;99.90
22716;DHT22;11525;51.152;4.456;2024-02-26T12:58:33;5.60;99.90
22716;DHT22;11525;51.152;4.456;2024-02-26T13:00:59;5.50;99.90
22716;DHT22;11525;51.152;4.456;2024-02-26T13:03:26;5.50;99.90
22716;DHT22;11525;51.152;4.456;2024-02-26T13:05:53;5.50;99.90
22716;DHT22;11525;51.152;4.456;2024-02-26T13:08:23;5.60;99.90
22716;DHT22;11525;51.152;4.456;2024-02-26T13:10:49;5.50;99.90
22716;DHT22;11525;51.152;4.456;2024-02-26T13:13:17;5.50;99.90
22716;DHT22;11525;51.152;4.456;2024-02-26T13:15:44;5.50;99.90
22716;DHT22;11525;51.152;4.456;2024-02-26T13:18:18;5.50;99.90
22716;DHT22;11525;51.152;4.456;2024-02-26T13:20:44;5.50;99.90
22716;DHT22;11525;51.152;4.456;2024-02-26T13:23:13;5.50;99.90
22716;DHT22;11525;51.152;4.456;2024-02-26T13:25:39;5.50;99.90
22716;DHT22;11525;51.152;4.456;2024-02-26T13:28:09;5.60;99.90
22716;DHT22;11525;51.152;4.456;2024-02-26T13:30:38;5.60;99.90
22716;DHT22;11525;51.152;4.456;2024-02-26T13:33:13;5.50;99.90
22716;DHT22;11525;51.152;4.456;2024-02-26T13:35:39;5.50;99.90
22716;DHT22;11525;51.152;4.456;2024-02-26T13:38:08;5.60;99.90
22716;DHT22;11525;51.152;4.456;2024-02-26T13:40:36;5.60;99.90
22716;DHT22;11525;51.152;4.456;2024-02-26T13:43:01;5.60;99.90
22716;DHT22;11525;51.152;4.456;2024-02-26T13:45:27;5.60;99.90
22716;DHT22;11525;51.152;4.456;2024-02-26T13:47:53;5.60;99.90
22716;DHT22;11525;51.152;4.456;2024-02-26T13:50:19;5.50;99.90
22716;DHT22;11525;51.152;4.456;2024-02-26T13:52:47;5.50;99.90
22716;DHT22;11525;51.152;4.456;2024-02-26T13:55:18;5.50;99.90
22716;DHT22;11525;51.152;4.456;2024-02-26T13:57:45;5.50;99.90
22716;DHT22;11525;51.152;4.456;2024-02-26T14:00:10;5.50;99.90
22716;DHT22;11525;51.152;4.456;2024-02-26T14:02:36;5.40;99.90
22716;DHT22;11525;51.152;4.456;2024-02-26T14:05:02;5.40;99.90
22716;DHT22;11525;51.152;4.456;2024-02-26T14:07:29;5.40;99.90
22716;DHT22;11525;51.152;4.456;2024-02-26T14:09:57;5.50;99.90
22716;DHT22;11525;51.152;4.456;2024-02-26T14:12:23;5.60;99.90
22716;DHT22;11525;51.152;4.456;2024-02-26T14:14:49;5.60;99.90
22716;DHT22;11525;51.152;4.456;2024-02-26T14:17:15;5.60;99.90
22716;DHT22;11525;51.152;4.456;2024-02-26T14:19:41;5.60;99.90
22716;DHT22;11525;51.152;4.456;2024-02-26T14:22:12;5.60;99.90
22716;DHT22;11525;51.152;4.456;2024-02-26T14:24:38;5.60;99.90
22716;DHT22;11525;51.152;4.456;2024-02-26T14:27:05;5.70;99.90
22716;DHT22;11525;51.152;4.456;2024-02-26T14:29:33;5.60;99.90
22716;DHT22;11525;51.152;4.456;2024-02-26T14:31:58;5.60;99.90
22716;DHT22;11525;51.152;4.456;2024-02-26T14:34:24;5.60;99.90
22716;DHT22;11525;51.152;4.456;2024-02-26T14:36:50;5.60;99.90
22716;DHT22;11525;51.152;4.456;2024-02-26T14:39:15;5.60;99.90
22716;DHT22;11525;51.152;4.456;2024-02-26T14:41:41;5.60;99.90
22716;DHT22;11525;51.152;4.456;2024-02-26T14:44:08;5.60;99.90
22716;DHT22;11525;51.152;4.456;2024-02-26T14:46:33;5.60;99.90
22716;DHT22;11525;51.152;4.456;2024-02-26T14:48:59;5.60;99.90
22716;DHT22;11525;51.152;4.456;2024-02-26T14:51:25;5.60;99.90
22716;DHT22;11525;51.152;4.456;2024-02-26T14:53:50;5.50;99.90
22716;DHT22;11525;51.152;4.456;2024-02-26T14:56:16;5.50;99.90
22716;DHT22;11525;51.152;4.456;2024-02-26T14:58:42;5.50;99.90
22716;DHT22;11525;51.152;4.456;2024-02-26T15:01:07;5.60;99.90
22716;DHT22;11525;51.152;4.456;2024-02-26T15:03:33;5.60;99.90
22716;DHT22;11525;51.152;4.456;2024-02-26T15:05:59;5.60;99.90
22716;DHT22;11525;51.152;4.456;2024-02-26T15:08:24;5.60;99.90
22716;DHT22;11525;51.152;4.456;2024-02-26T15:10:50;5.70;99.90
22716;DHT22;11525;51.152;4.456;2024-02-26T15:13:16;5.60;99.90
22716;DHT22;11525;51.152;4.456;2024-02-26T15:15:43;5.60;99.90
22716;DHT22;11525;51.152;4.456;2024-02-26T15:18:09;5.60;99.90
22716;DHT22;11525;51.152;4.456;2024-02-26T15:20:37;5.60;99.90
22716;DHT22;11525;51.152;4.456;2024-02-26T15:23:04;5.70;99.90
22716;DHT22;11525;51.152;4.456;2024-02-26T15:25:30;5.70;99.90
22716;DHT22;11525;51.152;4.456;2024-02-26T15:27:56;5.60;99.90
22716;DHT22;11525;51.152;4.456;2024-02-26T15:30:22;5.60;99.90
22716;DHT22;11525;51.152;4.456;2024-02-26T15:32:48;5.60;99.90
22716;DHT22;11525;51.152;4.456;2024-02-26T15:35:13;5.50;99.90
22716;DHT22;11525;51.152;4.456;2024-02-26T15:37:39;5.60;99.90
22716;DHT22;11525;51.152;4.456;2024-02-26T15:40:05;5.50;99.90
22716;DHT22;11525;51.152;4.456;2024-02-26T15:42:32;5.50;99.90
22716;DHT22;11525;51.152;4.456;2024-02-26T15:44:58;5.50;99.90
22716;DHT22;11525;51.152;4.456;2024-02-26T15:47:24;5.60;99.90